createdAt,value
2023-02-11T00:01:37.702Z,63.05
2023-02-11T00:04:05.072Z,63.85
2023-02-11T00:06:32.248Z,63.70
2023-02-11T00:08:58.835Z,61.33
2023-02-11T00:11:26.530Z,68.50
2023-02-11T00:13:53.063Z,71.35
2023-02-11T00:16:20.338Z,76.85
2023-02-11T00:18:46.986Z,68.75
2023-02-11T00:21:15.241Z,66.60
2023-02-11T00:23:41.942Z,69.05
2023-02-11T00:26:24.468Z,70.80
2023-02-11T00:28:51.093Z,78.25
2023-02-11T00:31:18.498Z,70.03
2023-02-11T00:33:45.714Z,74.75
2023-02-11T00:36:17.462Z,67.85
2023-02-11T00:38:44.543Z,67.78
2023-02-11T00:41:11.741Z,66.88
2023-02-11T00:43:38.221Z,75.25
2023-02-11T00:46:04.832Z,73.80
2023-02-11T00:48:31.408Z,74.50
2023-02-11T00:50:58.281Z,66.93
2023-02-11T00:53:25.085Z,73.47
2023-02-11T00:55:51.906Z,72.50
2023-02-11T00:58:18.580Z,82.78
2023-02-11T01:00:45.060Z,80.65
2023-02-11T01:03:11.601Z,76.28
2023-02-11T01:05:38.188Z,91.80
2023-02-11T01:08:05.078Z,75.13
2023-02-11T01:10:31.744Z,80.78
2023-02-11T01:12:58.272Z,78.35
2023-02-11T01:15:24.782Z,68.57
2023-02-11T01:17:51.394Z,72.43
2023-02-11T01:20:21.432Z,68.72
2023-02-11T01:22:48.003Z,69.65
2023-02-11T01:25:14.577Z,73.88
2023-02-11T01:27:41.125Z,73.13
2023-02-11T01:30:08.611Z,88.25
2023-02-11T01:32:35.219Z,80.22
2023-02-11T01:35:01.727Z,90.00
2023-02-11T01:37:28.302Z,84.07
2023-02-11T01:39:55.006Z,91.80
2023-02-11T01:42:23.265Z,82.38
2023-02-11T01:44:51.416Z,101.00
2023-02-11T01:47:18.951Z,86.00
2023-02-11T01:49:47.703Z,73.25
2023-02-11T01:52:30.743Z,69.78
2023-02-11T01:57:48.017Z,72.05
2023-02-11T02:00:14.651Z,73.32
2023-02-11T02:02:46.481Z,75.65
2023-02-11T02:05:34.311Z,81.80
2023-02-11T02:08:11.741Z,69.53
2023-02-11T02:10:38.494Z,78.72
2023-02-11T02:13:04.970Z,77.63
2023-02-11T02:15:35.386Z,85.65
2023-02-11T02:18:03.217Z,83.85
2023-02-11T02:20:56.634Z,90.38
2023-02-11T02:23:25.783Z,82.10
2023-02-11T02:26:10.977Z,65.68
2023-02-11T02:29:02.741Z,66.35
2023-02-11T02:31:41.367Z,70.13
2023-02-11T02:34:15.959Z,77.15
2023-02-11T02:37:01.919Z,76.32
2023-02-11T02:39:31.068Z,62.15
2023-02-11T02:41:57.590Z,68.20
2023-02-11T02:44:24.073Z,68.00
2023-02-11T02:46:50.725Z,67.63
2023-02-11T02:49:17.293Z,77.85
2023-02-11T02:52:21.465Z,71.95
2023-02-11T02:55:06.450Z,61.67
2023-02-11T02:57:45.888Z,61.33
2023-02-11T03:00:37.578Z,66.78
2023-02-11T03:03:27.438Z,73.25
2023-02-11T03:06:08.849Z,60.22
2023-02-11T03:08:42.383Z,54.80
2023-02-11T03:11:09.704Z,63.90
2023-02-11T03:13:36.707Z,59.25
2023-02-11T03:16:09.836Z,64.68
2023-02-11T03:18:36.856Z,69.40
2023-02-11T03:21:03.447Z,68.25
2023-02-11T03:23:35.860Z,67.90
2023-02-11T03:26:14.855Z,70.10
2023-02-11T03:29:08.386Z,75.43
2023-02-11T03:31:50.979Z,71.65
2023-02-11T03:34:38.351Z,74.00
2023-02-11T03:37:32.784Z,76.78
2023-02-11T03:40:08.450Z,77.10
2023-02-11T03:42:46.512Z,74.88
2023-02-11T03:45:15.582Z,79.80
2023-02-11T03:47:45.684Z,77.40
2023-02-11T03:50:12.592Z,79.20
2023-02-11T03:52:39.220Z,73.50
2023-02-11T03:55:11.238Z,70.20
2023-02-11T03:57:37.963Z,82.43
2023-02-11T04:00:05.091Z,71.53
2023-02-11T04:02:33.687Z,81.82
2023-02-11T04:05:00.408Z,75.97
2023-02-11T04:07:27.071Z,67.28
2023-02-11T04:09:53.625Z,74.70
2023-02-11T04:12:20.140Z,75.93
2023-02-11T04:14:46.707Z,72.90
2023-02-11T04:17:13.219Z,77.13
2023-02-11T04:19:39.781Z,78.28
2023-02-11T04:22:06.395Z,75.70
2023-02-11T04:24:32.856Z,68.88
2023-02-11T04:26:59.334Z,78.65
2023-02-11T04:29:25.897Z,67.70
2023-02-11T04:31:52.422Z,74.22
2023-02-11T04:34:18.921Z,65.00
2023-02-11T04:36:45.609Z,80.53
2023-02-11T04:39:12.094Z,67.55
2023-02-11T04:41:38.576Z,71.53
2023-02-11T04:44:05.301Z,66.57
2023-02-11T04:46:31.859Z,67.82
2023-02-11T04:48:58.384Z,66.72
2023-02-11T04:51:24.946Z,74.03
2023-02-11T04:53:51.458Z,69.88
2023-02-11T04:56:17.962Z,74.82
2023-02-11T04:58:44.484Z,69.35
2023-02-11T05:01:12.798Z,73.53
2023-02-11T05:03:39.318Z,68.05
2023-02-11T05:06:06.257Z,74.90
2023-02-11T05:08:32.934Z,72.13
2023-02-11T05:10:59.518Z,79.07
2023-02-11T05:13:26.075Z,72.82
2023-02-11T05:15:52.909Z,66.53
2023-02-11T05:18:19.557Z,71.07
2023-02-11T05:20:46.096Z,80.68
2023-02-11T05:23:12.601Z,65.00
2023-02-11T05:25:39.133Z,69.28
2023-02-11T05:28:05.954Z,63.60
2023-02-11T05:30:32.565Z,63.92
2023-02-11T05:32:59.050Z,68.63
2023-02-11T05:35:25.559Z,70.60
2023-02-11T05:37:52.118Z,71.95
2023-02-11T05:40:18.595Z,71.00
2023-02-11T05:42:45.132Z,73.82
2023-02-11T05:45:11.685Z,58.70
2023-02-11T05:47:38.152Z,61.08
2023-02-11T05:50:04.754Z,68.80
2023-02-11T05:52:31.232Z,66.30
2023-02-11T05:54:57.932Z,68.10
2023-02-11T05:57:24.478Z,66.13
2023-02-11T05:59:50.936Z,66.85
2023-02-11T06:02:17.433Z,67.80
2023-02-11T06:04:44.383Z,59.17
2023-02-11T06:07:10.863Z,59.72
2023-02-11T06:09:37.741Z,60.05
2023-02-11T06:12:04.486Z,62.05
2023-02-11T06:14:33.547Z,61.90
2023-02-11T06:17:00.302Z,58.17
2023-02-11T06:19:26.999Z,59.60
2023-02-11T06:21:53.530Z,53.70
2023-02-11T06:24:38.413Z,65.75
2023-02-11T06:27:06.526Z,61.28
2023-02-11T06:29:33.076Z,67.18
2023-02-11T06:31:59.641Z,53.78
2023-02-11T06:34:26.179Z,64.70
2023-02-11T06:36:52.643Z,54.45
2023-02-11T06:39:19.208Z,56.45
2023-02-11T06:41:45.742Z,55.03
2023-02-11T06:44:12.263Z,59.17
2023-02-11T06:46:38.793Z,65.50
2023-02-11T06:49:05.375Z,57.92
2023-02-11T06:51:31.872Z,64.28
2023-02-11T06:53:58.411Z,60.10
2023-02-11T06:56:27.369Z,55.92
2023-02-11T06:58:55.397Z,62.75
2023-02-11T07:01:22.374Z,60.22
2023-02-11T07:03:48.906Z,61.70
2023-02-11T07:06:17.098Z,65.00
2023-02-11T07:08:45.804Z,59.42
2023-02-11T07:11:13.931Z,53.15
2023-02-11T07:13:40.448Z,67.28
2023-02-11T07:16:07.623Z,52.80
2023-02-11T07:18:34.162Z,58.80
2023-02-11T07:21:04.069Z,57.80
2023-02-11T07:23:30.535Z,56.50
2023-02-11T07:25:57.133Z,40.55
2023-02-11T07:28:23.642Z,56.63
2023-02-11T07:30:50.177Z,57.05
2023-02-11T07:33:16.738Z,63.58
2023-02-11T07:35:43.252Z,53.67
2023-02-11T07:38:09.814Z,57.85
2023-02-11T07:40:36.626Z,62.80
2023-02-11T07:43:03.168Z,54.50
2023-02-11T07:45:29.677Z,54.47
2023-02-11T07:47:56.201Z,52.53
2023-02-11T07:50:22.701Z,54.53
2023-02-11T07:52:49.212Z,51.03
2023-02-11T07:55:15.768Z,59.10
2023-02-11T07:57:42.314Z,54.78
2023-02-11T08:00:09.357Z,59.72
2023-02-11T08:02:35.905Z,53.75
2023-02-11T08:05:02.474Z,51.10
2023-02-11T08:07:29.659Z,55.35
2023-02-11T08:09:56.263Z,49.08
2023-02-11T08:12:22.793Z,47.35
2023-02-11T08:14:49.275Z,52.78
2023-02-11T08:17:15.807Z,50.55
2023-02-11T08:19:42.454Z,46.97
2023-02-11T08:22:08.919Z,51.05
2023-02-11T08:24:35.489Z,52.40
2023-02-11T08:27:02.004Z,47.35
2023-02-11T08:29:28.498Z,54.22
2023-02-11T08:31:55.231Z,54.60
2023-02-11T08:34:21.988Z,44.53
2023-02-11T08:36:48.654Z,44.00
2023-02-11T08:39:20.768Z,46.15
2023-02-11T08:41:52.353Z,45.97
2023-02-11T08:44:19.560Z,46.05
2023-02-11T08:46:46.338Z,47.58
2023-02-11T08:49:12.862Z,41.85
2023-02-11T08:51:39.388Z,43.72
2023-02-11T08:54:09.455Z,48.30
2023-02-11T08:56:36.809Z,45.22
2023-02-11T08:59:03.384Z,43.70
2023-02-11T09:01:30.630Z,49.40
2023-02-11T09:03:57.978Z,42.60
2023-02-11T09:06:25.005Z,44.58
2023-02-11T09:08:53.058Z,41.60
2023-02-11T09:11:21.210Z,44.30
2023-02-11T09:13:47.925Z,39.88
2023-02-11T09:16:22.486Z,38.15
2023-02-11T09:18:49.254Z,38.10
2023-02-11T09:21:16.154Z,45.80
2023-02-11T09:23:44.679Z,44.08
2023-02-11T09:26:20.165Z,43.55
2023-02-11T09:28:47.069Z,34.20
2023-02-11T09:31:15.558Z,38.85
2023-02-11T09:33:48.146Z,39.10
2023-02-11T09:36:19.489Z,37.40
2023-02-11T09:38:46.266Z,43.60
2023-02-11T09:41:40.877Z,45.65
2023-02-11T09:44:09.578Z,42.28
2023-02-11T09:46:37.950Z,42.17
2023-02-11T09:49:04.971Z,50.78
2023-02-11T09:51:40.466Z,41.35
2023-02-11T09:54:34.672Z,46.65
2023-02-11T09:57:01.274Z,45.03
2023-02-11T09:59:27.755Z,43.15
2023-02-11T10:02:04.777Z,43.00
2023-02-11T10:04:45.540Z,46.72
2023-02-11T10:07:25.300Z,41.78
2023-02-11T10:10:15.416Z,40.42
2023-02-11T10:12:52.993Z,44.30
2023-02-11T10:15:44.567Z,42.83
2023-02-11T10:18:48.565Z,46.85
2023-02-11T10:21:15.014Z,47.75
2023-02-11T10:23:43.411Z,41.60
2023-02-11T10:26:15.059Z,35.30
2023-02-11T10:28:43.851Z,40.88
2023-02-11T10:31:16.198Z,33.05
2023-02-11T10:33:44.151Z,38.22
2023-02-11T10:36:14.217Z,49.30
2023-02-11T10:38:40.783Z,41.90
2023-02-11T10:41:10.533Z,43.65
2023-02-11T10:43:37.023Z,42.22
2023-02-11T10:46:03.656Z,41.65
2023-02-11T10:48:51.375Z,47.63
2023-02-11T10:51:27.673Z,44.85
2023-02-11T10:54:21.111Z,42.75
2023-02-11T10:56:55.181Z,43.85
2023-02-11T10:59:28.341Z,39.35
2023-02-11T11:02:06.332Z,40.42
2023-02-11T11:04:45.325Z,43.75
2023-02-11T11:07:13.167Z,52.20
2023-02-11T11:10:00.313Z,46.65
2023-02-11T11:12:44.908Z,47.38
2023-02-11T11:15:11.305Z,42.72
2023-02-11T11:17:38.031Z,51.53
2023-02-11T11:20:27.546Z,41.10
2023-02-11T11:23:08.462Z,42.08
2023-02-11T11:25:34.953Z,42.75
2023-02-11T11:28:01.495Z,45.40
2023-02-11T11:30:33.235Z,42.58
2023-02-11T11:33:00.024Z,39.40
2023-02-11T11:35:30.329Z,40.53
2023-02-11T11:38:02.025Z,36.10
2023-02-11T11:40:33.081Z,40.10
2023-02-11T11:43:05.576Z,37.53
2023-02-11T11:45:32.050Z,42.70
2023-02-11T11:48:10.408Z,41.42
2023-02-11T11:50:48.916Z,41.15
2023-02-11T11:53:40.303Z,45.13
2023-02-11T11:56:16.151Z,38.35
2023-02-11T11:58:42.656Z,45.63
2023-02-11T12:01:28.006Z,39.70
2023-02-11T12:04:18.537Z,38.88
2023-02-11T12:07:00.983Z,41.83
2023-02-11T12:09:37.349Z,36.60
2023-02-11T12:12:16.827Z,41.10
2023-02-11T12:14:55.350Z,35.10
2023-02-11T12:17:38.985Z,41.38
2023-02-11T12:20:33.348Z,34.13
2023-02-11T12:23:27.160Z,31.25
2023-02-11T12:26:26.341Z,36.75
2023-02-11T12:29:11.354Z,38.30
2023-02-11T12:31:47.300Z,38.47
2023-02-11T12:34:32.073Z,32.38
2023-02-11T12:37:08.158Z,36.47
2023-02-11T12:39:45.452Z,37.08
2023-02-11T12:42:49.507Z,38.92
2023-02-11T12:45:42.796Z,33.45
2023-02-11T12:51:14.770Z,33.50
2023-02-11T12:53:47.377Z,36.95
2023-02-11T12:56:22.157Z,35.55
2023-02-11T12:58:48.969Z,41.45
2023-02-11T13:01:50.558Z,34.33
2023-02-11T13:04:37.090Z,33.88
2023-02-11T13:07:32.359Z,40.38
2023-02-11T13:10:02.671Z,35.47
2023-02-11T13:12:48.348Z,37.08
2023-02-11T13:15:15.039Z,31.50
2023-02-11T13:17:49.734Z,36.03
2023-02-11T13:20:37.023Z,34.90
2023-02-11T13:23:18.790Z,36.28
2023-02-11T13:26:10.989Z,35.08
2023-02-11T13:28:48.774Z,29.77
2023-02-11T13:31:16.834Z,36.95
2023-02-11T13:33:44.335Z,35.95
2023-02-11T13:36:13.055Z,34.33
2023-02-11T13:38:39.611Z,30.88
2023-02-11T13:41:17.135Z,29.05
2023-02-11T13:43:43.697Z,34.58
2023-02-11T13:46:13.779Z,30.65
2023-02-11T13:48:46.341Z,33.75
2023-02-11T13:51:14.985Z,42.00
2023-02-11T13:53:51.411Z,34.63
2023-02-11T13:56:32.659Z,32.83
2023-02-11T13:59:02.118Z,34.38
2023-02-11T14:02:06.973Z,32.55
2023-02-11T14:04:52.596Z,33.03
2023-02-11T14:07:48.457Z,35.95
2023-02-11T14:10:43.108Z,33.05
2023-02-11T14:13:33.053Z,35.53
2023-02-11T14:16:17.116Z,30.80
2023-02-11T14:18:51.874Z,36.53
2023-02-11T14:21:27.343Z,28.73
2023-02-11T14:23:55.939Z,49.42
2023-02-11T14:27:01.671Z,40.58
2023-02-11T14:29:46.180Z,44.63
2023-02-11T14:32:47.689Z,52.17
2023-02-11T14:35:36.512Z,42.13
2023-02-11T14:38:26.217Z,45.83
2023-02-11T14:41:05.680Z,49.75
2023-02-11T14:43:36.496Z,48.38
2023-02-11T14:46:03.167Z,42.92
2023-02-11T14:48:31.343Z,50.08
2023-02-11T14:51:00.667Z,51.85
2023-02-11T14:53:27.243Z,45.53
2023-02-11T14:55:54.341Z,45.80
2023-02-11T14:58:31.636Z,51.60
2023-02-11T15:00:59.213Z,49.78
2023-02-11T15:03:31.790Z,56.60
2023-02-11T15:06:19.815Z,47.70
2023-02-11T15:09:01.098Z,43.72
2023-02-11T15:11:32.241Z,42.35
2023-02-11T15:14:06.878Z,48.42
2023-02-11T15:16:33.376Z,52.92
2023-02-11T15:19:02.541Z,48.45
2023-02-11T15:21:30.221Z,48.13
2023-02-11T15:24:20.924Z,49.67
2023-02-11T15:27:21.048Z,45.65
2023-02-11T15:29:51.627Z,49.78
2023-02-11T15:32:18.956Z,55.00
2023-02-11T15:34:45.929Z,51.10
2023-02-11T15:37:14.503Z,51.97
2023-02-11T15:39:41.982Z,51.53
2023-02-11T15:42:27.643Z,48.50
2023-02-11T15:45:15.668Z,50.05
2023-02-11T15:47:47.204Z,55.25
2023-02-11T15:50:27.757Z,60.75
2023-02-11T15:52:54.988Z,56.65
2023-02-11T15:55:21.503Z,51.28
2023-02-11T15:57:52.498Z,51.08
2023-02-11T16:00:21.267Z,49.50
2023-02-11T16:02:48.664Z,55.08
2023-02-11T16:05:31.156Z,54.03
2023-02-11T16:07:58.016Z,58.55
2023-02-11T16:10:33.760Z,64.47
2023-02-11T16:13:17.358Z,50.67
2023-02-11T16:15:50.941Z,55.83
2023-02-11T16:18:40.006Z,52.95
2023-02-11T16:21:14.650Z,51.05
2023-02-11T16:23:44.112Z,52.80
2023-02-11T16:26:39.459Z,55.78
2023-02-11T16:29:14.409Z,44.63
2023-02-11T16:31:42.636Z,62.92
2023-02-11T16:34:16.336Z,51.20
2023-02-11T16:36:42.913Z,50.90
2023-02-11T16:39:09.782Z,49.40
2023-02-11T16:41:36.305Z,56.53
2023-02-11T16:44:02.947Z,57.45
2023-02-11T16:46:29.541Z,62.70
2023-02-11T16:48:56.223Z,76.72
2023-02-11T16:51:22.790Z,60.50
2023-02-11T16:53:49.294Z,64.07
2023-02-11T16:56:16.813Z,61.72
2023-02-11T16:58:44.447Z,57.97
2023-02-11T17:01:13.527Z,70.10
2023-02-11T17:03:40.583Z,72.18
2023-02-11T17:06:09.076Z,68.82
2023-02-11T17:08:35.793Z,74.30
2023-02-11T17:11:02.901Z,61.22
2023-02-11T17:13:29.454Z,66.70
2023-02-11T17:15:56.091Z,65.43
2023-02-11T17:18:22.664Z,66.28
2023-02-11T17:20:49.176Z,69.57
2023-02-11T17:23:15.720Z,65.75
2023-02-11T17:25:42.269Z,70.55
2023-02-11T17:28:09.000Z,75.15
2023-02-11T17:30:35.597Z,65.32
2023-02-11T17:33:02.065Z,70.47
2023-02-11T17:35:28.584Z,61.38
2023-02-11T17:37:55.125Z,66.28
2023-02-11T17:40:21.749Z,59.80
2023-02-11T17:42:48.464Z,66.03
2023-02-11T17:45:15.229Z,62.35
2023-02-11T17:47:41.760Z,59.55
2023-02-11T17:50:08.822Z,62.70
2023-02-11T17:52:36.566Z,69.30
2023-02-11T17:55:03.132Z,66.63
2023-02-11T17:57:29.772Z,66.35
2023-02-11T17:59:56.268Z,75.07
2023-02-11T18:02:22.795Z,70.93
2023-02-11T18:04:49.627Z,82.75
2023-02-11T18:07:16.213Z,64.75
2023-02-11T18:09:42.912Z,63.35
2023-02-11T18:12:10.656Z,59.08
2023-02-11T18:14:40.509Z,69.95
2023-02-11T18:17:07.233Z,60.25
2023-02-11T18:19:35.930Z,62.00
2023-02-11T18:22:04.218Z,64.07
2023-02-11T18:24:31.049Z,70.82
2023-02-11T18:26:57.652Z,79.18
2023-02-11T18:29:24.173Z,78.95
2023-02-11T18:31:50.852Z,70.28
2023-02-11T18:34:17.480Z,65.47
2023-02-11T18:36:44.386Z,74.28
2023-02-11T18:39:10.912Z,66.93
2023-02-11T18:41:40.084Z,61.47
2023-02-11T18:44:06.800Z,66.97
2023-02-11T18:46:33.525Z,58.22
2023-02-11T18:49:00.111Z,66.72
2023-02-11T18:51:26.654Z,61.20
2023-02-11T18:53:53.227Z,59.95
2023-02-11T18:56:21.781Z,68.47
2023-02-11T18:58:48.865Z,90.75
2023-02-11T19:01:20.929Z,78.85
2023-02-11T19:03:48.324Z,81.90
2023-02-11T19:06:19.904Z,72.95
2023-02-11T19:08:46.403Z,74.95
2023-02-11T19:11:13.273Z,72.32
2023-02-11T19:13:39.835Z,66.68
2023-02-11T19:16:11.360Z,72.78
2023-02-11T19:18:38.700Z,75.72
2023-02-11T19:21:09.290Z,69.38
2023-02-11T19:23:35.830Z,70.15
2023-02-11T19:26:04.523Z,69.13
2023-02-11T19:28:31.798Z,63.45
2023-02-11T19:30:58.365Z,63.08
2023-02-11T19:33:24.917Z,63.97
2023-02-11T19:35:51.666Z,71.20
2023-02-11T19:38:19.100Z,68.30
2023-02-11T19:40:45.599Z,63.95
2023-02-11T19:43:12.078Z,68.03
2023-02-11T19:45:38.548Z,67.75
2023-02-11T19:48:05.242Z,72.38
2023-02-11T19:50:31.731Z,65.05
2023-02-11T19:52:58.296Z,65.95
2023-02-11T19:55:24.841Z,63.90
2023-02-11T19:57:51.350Z,57.60
2023-02-11T20:00:18.448Z,65.85
2023-02-11T20:02:47.113Z,67.88
2023-02-11T20:05:14.084Z,71.50
2023-02-11T20:07:40.575Z,62.67
2023-02-11T20:10:08.102Z,69.95
2023-02-11T20:12:34.592Z,68.93
2023-02-11T20:15:01.086Z,73.80
2023-02-11T20:17:28.239Z,72.05
2023-02-11T20:19:54.792Z,66.75
2023-02-11T20:22:21.292Z,68.45
2023-02-11T20:24:48.305Z,67.70
2023-02-11T20:27:14.893Z,64.72
2023-02-11T20:29:41.564Z,61.72
2023-02-11T20:32:11.086Z,62.00
2023-02-11T20:34:37.689Z,58.25
2023-02-11T20:37:04.794Z,57.05
2023-02-11T20:39:31.443Z,49.92
2023-02-11T20:42:01.087Z,53.08
2023-02-11T20:44:27.664Z,52.83
2023-02-11T20:46:54.623Z,57.08
2023-02-11T20:49:22.877Z,47.05
2023-02-11T20:51:53.675Z,61.60
2023-02-11T20:54:20.556Z,52.03
2023-02-11T20:56:48.195Z,51.47
2023-02-11T20:59:14.957Z,45.42
2023-02-11T21:01:43.303Z,46.92
2023-02-11T21:04:30.339Z,45.83
2023-02-11T21:06:58.880Z,45.47
2023-02-11T21:09:27.210Z,39.13
2023-02-11T21:11:54.109Z,39.28
2023-02-11T21:14:22.160Z,39.83
2023-02-11T21:16:48.703Z,36.85
2023-02-11T21:19:15.413Z,40.63
2023-02-11T21:21:45.465Z,30.42
2023-02-11T21:24:11.977Z,34.55
2023-02-11T21:26:38.590Z,28.98
2023-02-11T21:29:05.667Z,27.15
2023-02-11T21:31:32.851Z,31.48
2023-02-11T21:33:59.566Z,36.38
2023-02-11T21:36:27.900Z,33.10
2023-02-11T21:38:54.457Z,32.25
2023-02-11T21:41:22.382Z,33.58
2023-02-11T21:43:49.432Z,30.15
2023-02-11T21:46:16.413Z,31.08
2023-02-11T21:48:42.973Z,32.95
2023-02-11T21:51:12.943Z,31.80
2023-02-11T21:53:39.471Z,31.67
2023-02-11T21:56:16.376Z,36.55
2023-02-11T21:58:43.286Z,34.72
2023-02-11T22:01:14.181Z,30.88
2023-02-11T22:03:40.787Z,33.85
2023-02-11T22:06:08.931Z,32.83
2023-02-11T22:08:35.497Z,37.35
2023-02-11T22:11:04.005Z,39.35
2023-02-11T22:13:30.609Z,41.65
2023-02-11T22:15:58.914Z,35.55
2023-02-11T22:18:25.506Z,36.55
2023-02-11T22:21:24.662Z,34.97
2023-02-11T22:23:51.673Z,31.55
2023-02-11T22:26:20.349Z,41.15
2023-02-11T22:28:46.920Z,34.03
2023-02-11T22:31:15.465Z,36.45
2023-02-11T22:33:42.166Z,37.10
2023-02-11T22:36:14.536Z,36.95
2023-02-11T22:38:41.123Z,34.17
2023-02-11T22:41:09.332Z,35.75
2023-02-11T22:43:35.955Z,32.45
2023-02-11T22:46:03.301Z,32.75
2023-02-11T22:48:29.905Z,37.17
2023-02-11T22:50:56.463Z,32.47
2023-02-11T22:53:25.478Z,35.03
2023-02-11T22:55:52.340Z,33.50
2023-02-11T22:58:18.993Z,36.17
2023-02-11T23:00:45.489Z,37.47
2023-02-11T23:03:11.976Z,34.60
2023-02-11T23:05:41.716Z,35.20
2023-02-11T23:08:09.028Z,38.28
2023-02-11T23:10:36.343Z,34.45
2023-02-11T23:13:03.488Z,35.58
2023-02-11T23:15:30.001Z,38.22
2023-02-11T23:17:56.519Z,39.53
2023-02-11T23:20:23.025Z,33.42
2023-02-11T23:22:49.586Z,39.20
2023-02-11T23:25:16.183Z,37.92
2023-02-11T23:27:42.648Z,43.45
2023-02-11T23:30:09.699Z,39.20
2023-02-11T23:32:38.818Z,37.80
2023-02-11T23:35:05.553Z,36.35
2023-02-11T23:37:32.038Z,37.95
2023-02-11T23:39:58.545Z,39.60
2023-02-11T23:42:25.278Z,39.80
2023-02-11T23:44:51.827Z,46.92
2023-02-11T23:47:18.298Z,43.85
2023-02-11T23:49:44.738Z,43.72
2023-02-11T23:52:11.227Z,37.25
2023-02-11T23:54:37.691Z,38.67
2023-02-11T23:57:04.172Z,37.20
2023-02-11T23:59:30.721Z,42.08
